Time;durP1;ratioP1;P1;durP2;ratioP2;P2;SDS_P1;SDS_P2;PMS_P1;PMS_P2;Temp;Humidity;BMP_temperature;BMP_pressure;BME280_temperature;BME280_humidity;BME280_pressure;Samples;Min_cycle;Max_cycle;Signal;HPM_P1;HPM_P2
2023/04/03 00:01:17;;;;;;;1.10;0.80;;;;;;;1.01;96.08;96812.72;109158;1275;22481;-84
2023/04/03 00:03:45;;;;;;;2.40;1.10;;;;;;;0.99;96.17;96813.94;109163;1272;25251;-84
2023/04/03 00:06:14;;;;;;;1.30;1.10;;;;;;;0.97;96.06;96823.57;109107;1275;57490;-84
2023/04/03 00:08:42;;;;;;;1.00;0.90;;;;;;;0.96;96.07;96818.27;109152;1275;22596;-84
2023/04/03 00:11:11;;;;;;;1.20;1.10;;;;;;;0.94;96.15;96823.64;109132;1275;22553;-83
2023/04/03 00:13:40;;;;;;;2.00;1.30;;;;;;;0.92;96.33;96823.27;109160;1275;22516;-83
2023/04/03 00:16:10;;;;;;;1.10;1.00;;;;;;;0.88;96.19;96823.45;109081;1271;60194;-83
2023/04/03 00:18:39;;;;;;;1.40;1.20;;;;;;;0.87;96.63;96822.54;109160;1272;23198;-83
2023/04/03 00:21:09;;;;;;;1.60;1.30;;;;;;;0.85;96.36;96824.84;109162;1275;24305;-82
2023/04/03 00:23:38;;;;;;;1.50;1.40;;;;;;;0.88;96.31;96828.99;109132;1275;23118;-82
2023/04/03 00:26:07;;;;;;;1.30;0.90;;;;;;;0.92;96.65;96828.69;109122;1268;51344;-82
2023/04/03 00:28:35;;;;;;;1.10;1.00;;;;;;;0.92;96.53;96828.84;109157;1275;22803;-82
2023/04/03 00:31:04;;;;;;;1.70;1.10;;;;;;;0.88;96.17;96829.11;109127;1275;22618;-82
2023/04/03 00:33:33;;;;;;;1.20;1.10;;;;;;;0.89;96.23;96833.40;109139;1269;22588;-82
2023/04/03 00:36:06;;;;;;;1.20;1.10;;;;;;;0.91;96.36;96832.66;109115;1273;77485;-82
2023/04/03 00:38:35;;;;;;;1.20;1.00;;;;;;;0.92;96.31;96831.98;109120;1269;23403;-82
2023/04/03 00:41:04;;;;;;;1.40;1.30;;;;;;;0.90;96.30;96832.76;109088;1268;25457;-82
2023/04/03 00:43:32;;;;;;;1.50;1.40;;;;;;;0.86;96.40;96832.06;109154;1268;24257;-82
2023/04/03 00:46:01;;;;;;;1.80;1.60;;;;;;;0.85;96.47;96838.33;109078;1275;61459;-82
2023/04/03 00:48:34;;;;;;;1.90;1.70;;;;;;;0.85;96.56;96832.66;109124;1269;22590;-82
2023/04/03 00:51:04;;;;;;;2.00;1.80;;;;;;;0.81;96.32;96838.77;109072;1275;24263;-82
2023/04/03 00:53:34;;;;;;;;;;;;;;;0.78;96.32;96844.16;109086;1269;25389;-82
2023/04/03 00:56:05;;;;;;;3.40;1.80;;;;;;;0.77;96.38;96841.94;107748;1272;1866289;-82
2023/04/03 00:58:38;;;;;;;2.30;1.80;;;;;;;0.80;96.52;96839.35;109146;1275;22556;-82
2023/04/03 01:01:12;;;;;;;2.70;1.80;;;;;;;0.79;96.52;96842.00;109169;1275;22584;-82
2023/04/03 01:03:41;;;;;;;2.20;1.90;;;;;;;0.78;96.47;96842.50;109155;1275;22520;-82
2023/04/03 01:06:12;;;;;;;1.80;1.50;;;;;;;0.77;96.52;96841.55;109067;1268;39400;-82
2023/04/03 01:08:41;;;;;;;2.10;1.60;;;;;;;0.74;96.51;96842.09;109068;1275;22595;-82
2023/04/03 01:11:09;;;;;;;1.40;1.30;;;;;;;0.72;96.39;96839.09;109132;1275;22627;-82
2023/04/03 01:13:38;;;;;;;2.20;2.00;;;;;;;0.68;96.06;96841.19;109162;1275;23187;-82
2023/04/03 01:16:08;;;;;;;2.60;1.90;;;;;;;0.68;96.42;96849.46;109111;1275;52157;-82
2023/04/03 01:18:38;;;;;;;1.70;1.60;;;;;;;0.68;96.53;96849.70;109163;1275;22655;-81
2023/04/03 01:21:26;;;;;;;2.60;1.70;;;;;;;0.68;96.53;96849.01;109152;1275;22549;-82
2023/04/03 01:24:23;;;;;;;2.10;1.90;;;;;;;0.65;96.20;96853.89;109137;1275;22576;-82
2023/04/03 01:26:51;;;;;;;3.30;1.90;;;;;;;0.63;96.30;96856.20;108888;1275;44460;-82
2023/04/03 01:29:19;;;;;;;1.90;1.40;;;;;;;0.61;96.00;96855.70;109128;1275;24203;-81
2023/04/03 01:31:53;;;;;;;1.70;1.40;;;;;;;0.58;96.30;96857.92;109027;1276;22554;-82
2023/04/03 01:34:22;;;;;;;2.50;1.40;;;;;;;0.58;96.50;96861.85;109014;1275;22572;-82
2023/04/03 01:36:51;;;;;;;1.70;1.20;;;;;;;0.59;96.22;96859.44;109045;1275;71780;-82
2023/04/03 01:39:21;;;;;;;1.40;1.00;;;;;;;0.57;96.35;96862.70;109109;1275;22523;-82
2023/04/03 01:41:50;;;;;;;1.30;1.20;;;;;;;0.52;96.16;96862.10;109146;1275;22528;-82
2023/04/03 01:44:18;;;;;;;1.20;1.00;;;;;;;0.48;96.21;96862.13;109137;1275;22505;-83
2023/04/03 01:46:47;;;;;;;1.40;1.00;;;;;;;0.46;96.43;96869.37;109123;1275;30943;-83
2023/04/03 01:49:15;;;;;;;1.80;0.90;;;;;;;0.44;96.12;96867.45;109099;1275;22490;-83
2023/04/03 01:51:43;;;;;;;1.00;0.90;;;;;;;0.40;96.30;96868.05;109059;1269;22546;-83
2023/04/03 01:54:12;;;;;;;1.10;1.00;;;;;;;0.38;96.42;96869.27;109114;1269;22565;-84
2023/04/03 01:56:40;;;;;;;1.20;0.90;;;;;;;0.37;96.83;96874.41;109088;1275;56415;-83
2023/04/03 01:59:09;;;;;;;1.20;1.00;;;;;;;0.34;96.57;96872.58;109106;1275;23795;-84
2023/04/03 02:01:37;;;;;;;2.20;1.30;;;;;;;0.31;96.43;96870.71;109152;1275;22565;-84
2023/04/03 02:04:06;;;;;;;1.30;1.20;;;;;;;0.26;96.78;96874.64;109086;1269;23781;-84
2023/04/03 02:06:34;;;;;;;2.00;1.20;;;;;;;0.21;97.02;96874.31;109094;1275;101764;-84
2023/04/03 02:09:03;;;;;;;1.30;1.20;;;;;;;0.17;97.15;96872.45;109156;1275;22494;-83
2023/04/03 02:11:32;;;;;;;2.10;1.50;;;;;;;0.14;97.33;96878.55;109140;1275;23657;-83
2023/04/03 02:14:03;;;;;;;1.50;1.40;;;;;;;0.12;97.26;96877.54;109142;1274;25476;-83
2023/04/03 02:16:31;;;;;;;2.00;1.40;;;;;;;0.08;97.19;96878.84;109105;1269;56791;-83
2023/04/03 02:19:00;;;;;;;1.70;1.30;;;;;;;0.05;97.27;96882.23;109154;1275;23935;-83
2023/04/03 02:21:28;;;;;;;1.60;1.30;;;;;;;0.04;97.26;96884.12;109114;1275;23803;-83
2023/04/03 02:23:56;;;;;;;1.60;1.00;;;;;;;0.03;97.39;96884.85;109104;1275;22558;-83
2023/04/03 02:26:27;;;;;;;1.60;1.30;;;;;;;0.03;97.47;96881.92;109044;1268;105785;-85
2023/04/03 02:28:56;;;;;;;2.20;1.60;;;;;;;0.00;97.35;96882.53;109096;1275;22486;-83
2023/04/03 02:31:25;;;;;;;2.00;1.40;;;;;;;0.01;97.45;96882.77;109108;1275;22479;-82
2023/04/03 02:33:53;;;;;;;1.90;1.20;;;;;;;0.02;97.54;96879.60;109120;1275;23888;-82
2023/04/03 02:36:21;;;;;;;1.50;1.10;;;;;;;0.02;97.58;96883.52;109082;1275;65388;-82
2023/04/03 02:38:50;;;;;;;1.50;1.20;;;;;;;0.02;97.33;96882.97;109108;1268;22492;-82
2023/04/03 02:41:18;;;;;;;1.30;1.10;;;;;;;0.01;97.49;96883.48;109108;1275;22751;-82
2023/04/03 02:43:47;;;;;;;1.50;1.20;;;;;;;0.00;97.16;96879.23;109129;1264;22663;-82
2023/04/03 02:46:15;;;;;;;1.80;1.20;;;;;;;0.00;97.11;96884.97;109101;1274;39585;-83
2023/04/03 02:48:43;;;;;;;1.40;1.20;;;;;;;0.02;96.91;96888.98;109105;1275;23719;-83
2023/04/03 02:51:12;;;;;;;1.80;1.50;;;;;;;0.01;96.90;96887.98;109148;1275;23632;-82
2023/04/03 02:53:40;;;;;;;2.80;1.70;;;;;;;-0.01;96.95;96890.13;109170;1274;24036;-82
2023/04/03 02:56:08;;;;;;;2.20;1.70;;;;;;;-0.02;96.77;96894.58;109073;1272;89059;-82
2023/04/03 02:58:37;;;;;;;2.30;1.80;;;;;;;-0.04;96.68;96891.58;109144;1268;22464;-82
2023/04/03 03:01:05;;;;;;;1.90;1.40;;;;;;;-0.04;96.84;96895.19;109125;1275;24309;-82
2023/04/03 03:03:34;;;;;;;1.80;1.50;;;;;;;-0.04;96.78;96895.30;109140;1275;23336;-82
2023/04/03 03:06:05;;;;;;;2.40;1.70;;;;;;;-0.04;96.96;96892.74;109089;1272;51374;-83
2023/04/03 03:08:34;;;;;;;2.00;1.50;;;;;;;-0.05;96.64;96893.75;109119;1275;22560;-82
2023/04/03 03:11:03;;;;;;;1.30;1.20;;;;;;;-0.05;96.48;96896.60;109087;1275;22650;-83
2023/04/03 03:13:31;;;;;;;1.40;1.30;;;;;;;-0.05;96.61;96898.84;109156;1275;22553;-82
2023/04/03 03:16:00;;;;;;;1.90;1.50;;;;;;;-0.05;96.60;96906.70;109065;1268;73100;-82
2023/04/03 03:18:29;;;;;;;1.70;1.40;;;;;;;-0.06;96.76;96904.54;109114;1275;22529;-83
2023/04/03 03:20:59;;;;;;;1.40;1.30;;;;;;;-0.06;96.67;96905.38;109098;1272;22561;-82
2023/04/03 03:23:29;;;;;;;1.30;1.10;;;;;;;-0.04;96.74;96902.69;109139;1265;22468;-82
2023/04/03 03:25:59;;;;;;;2.10;1.40;;;;;;;-0.05;96.78;96906.25;109022;1275;95675;-82
2023/04/03 03:28:28;;;;;;;1.70;1.40;;;;;;;-0.07;96.71;96902.33;109109;1270;22527;-82
2023/04/03 03:30:56;;;;;;;1.30;1.20;;;;;;;-0.07;96.44;96907.54;109087;1273;24343;-82
2023/04/03 03:33:25;;;;;;;1.60;1.20;;;;;;;-0.09;96.45;96905.23;109161;1275;22534;-82
2023/04/03 03:35:54;;;;;;;3.10;1.90;;;;;;;-0.08;96.62;96908.48;109050;1275;45847;-82
2023/04/03 03:38:24;;;;;;;1.70;1.10;;;;;;;-0.07;96.80;96910.55;109125;1268;22582;-82
2023/04/03 03:40:51;;;;;;;;;;;;;;;-0.07;96.79;96910.27;109115;1275;22441;-82
2023/04/03 03:43:20;;;;;;;1.80;1.30;;;;;;;-0.07;96.78;96914.36;109057;1275;22574;-82
2023/04/03 03:45:52;;;;;;;1.60;1.20;;;;;;;-0.06;96.83;96912.55;109053;1275;69457;-82
2023/04/03 03:48:22;;;;;;;1.70;1.40;;;;;;;-0.07;96.57;96915.98;109119;1275;22467;-82
2023/04/03 03:50:51;;;;;;;1.80;1.00;;;;;;;-0.09;96.53;96914.13;109109;1275;22941;-80
2023/04/03 03:53:19;;;;;;;1.90;1.10;;;;;;;-0.10;96.40;96913.54;109137;1272;22517;-82
2023/04/03 03:55:48;;;;;;;1.60;1.20;;;;;;;-0.11;96.45;96923.00;109083;1275;46460;-82
2023/04/03 03:58:16;;;;;;;1.30;1.20;;;;;;;-0.11;96.65;96924.48;109100;1269;25421;-82
2023/04/03 04:00:45;;;;;;;2.30;1.30;;;;;;;-0.12;96.37;96921.99;109124;1272;22565;-82
2023/04/03 04:03:15;;;;;;;3.30;1.60;;;;;;;-0.15;96.58;96923.04;109129;1275;23179;-82
2023/04/03 04:05:44;;;;;;;1.90;1.50;;;;;;;-0.20;96.30;96931.61;109047;1275;42550;-82
2023/04/03 04:08:12;;;;;;;3.40;1.70;;;;;;;-0.24;96.35;96931.14;109125;1275;22504;-82
2023/04/03 04:10:41;;;;;;;1.90;1.60;;;;;;;-0.29;96.47;96933.98;109101;1272;22641;-81
2023/04/03 04:13:10;;;;;;;2.80;1.80;;;;;;;-0.31;96.66;96934.55;109082;1270;23013;-82
2023/04/03 04:15:38;;;;;;;2.20;1.80;;;;;;;-0.36;96.89;96934.52;109078;1269;56106;-81
2023/04/03 04:18:07;;;;;;;3.00;2.00;;;;;;;-0.38;96.85;96937.33;109123;1275;25256;-82
2023/04/03 04:20:35;;;;;;;2.00;1.60;;;;;;;-0.38;97.12;96934.20;109088;1269;22465;-81
2023/04/03 04:23:04;;;;;;;2.00;1.80;;;;;;;-0.38;97.16;96929.51;109147;1275;22548;-82
2023/04/03 04:25:33;;;;;;;1.70;1.60;;;;;;;-0.38;97.15;96932.60;109066;1275;33245;-82
2023/04/03 04:28:01;;;;;;;2.00;1.40;;;;;;;-0.35;96.97;96931.20;109094;1269;25127;-82
2023/04/03 04:30:30;;;;;;;1.90;1.70;;;;;;;-0.35;96.89;96935.16;109092;1275;22538;-81
2023/04/03 04:32:58;;;;;;;3.10;1.60;;;;;;;-0.33;96.87;96934.02;109105;1269;22543;-82
2023/04/03 04:35:27;;;;;;;1.60;1.30;;;;;;;-0.32;97.05;96938.35;109088;1275;22164;-81
2023/04/03 04:37:59;;;;;;;2.00;1.30;;;;;;;-0.30;96.87;96938.27;109114;1275;23823;-82
2023/04/03 04:40:28;;;;;;;1.90;1.40;;;;;;;-0.29;96.82;96942.35;109140;1275;22528;-81
2023/04/03 04:43:15;;;;;;;2.50;1.60;;;;;;;-0.30;97.02;96944.33;109111;1269;23033;-81
2023/04/03 04:45:44;;;;;;;3.70;2.10;;;;;;;-0.30;96.93;96946.24;109100;1257;62981;-83
2023/04/03 04:48:12;;;;;;;2.90;2.20;;;;;;;-0.31;96.81;96946.97;109152;1253;21948;-82
2023/04/03 04:50:41;;;;;;;2.90;1.90;;;;;;;-0.32;96.90;96948.45;109067;1270;22502;-82
2023/04/03 04:53:09;;;;;;;2.50;2.30;;;;;;;-0.35;96.70;96946.02;109168;1275;24247;-82
2023/04/03 04:55:38;;;;;;;2.30;1.80;;;;;;;-0.35;96.74;96952.19;109083;1275;35414;-82
2023/04/03 04:58:06;;;;;;;2.70;2.30;;;;;;;-0.38;96.62;96952.67;109119;1275;22521;-82
2023/04/03 05:00:34;;;;;;;2.40;1.80;;;;;;;-0.37;96.91;96959.77;109134;1269;22536;-82
2023/04/03 05:03:03;;;;;;;4.10;2.80;;;;;;;-0.36;97.00;96964.36;109138;1275;22596;-82
2023/04/03 05:05:31;;;;;;;3.90;2.90;;;;;;;-0.36;96.75;96964.08;109041;1270;66247;-82
2023/04/03 05:08:00;;;;;;;1.80;1.50;;;;;;;-0.37;96.86;96960.72;109129;1272;22531;-82
2023/04/03 05:10:28;;;;;;;3.20;2.20;;;;;;;-0.39;96.83;96961.02;109136;1268;22483;-82
2023/04/03 05:12:56;;;;;;;2.20;2.00;;;;;;;-0.39;96.88;96961.56;109116;1269;22514;-82
2023/04/03 05:15:25;;;;;;;2.50;2.00;;;;;;;-0.38;96.63;96964.77;109105;1268;22634;-82
2023/04/03 05:17:53;;;;;;;2.60;2.10;;;;;;;-0.36;96.79;96965.49;109088;1275;52882;-82
2023/04/03 05:20:22;;;;;;;2.10;1.90;;;;;;;-0.36;96.85;96964.16;109110;1272;23816;-81
2023/04/03 05:22:50;;;;;;;2.20;1.70;;;;;;;-0.33;96.97;96972.18;109097;1275;22487;-81
2023/04/03 05:25:19;;;;;;;2.70;1.90;;;;;;;-0.33;96.75;96970.09;109103;1275;22672;-82
2023/04/03 05:27:47;;;;;;;2.30;2.10;;;;;;;-0.34;96.64;96973.66;109055;1272;43728;-82
2023/04/03 05:30:16;;;;;;;1.90;1.70;;;;;;;-0.33;96.42;96975.78;109095;1275;22643;-82
2023/04/03 05:32:45;;;;;;;2.90;2.20;;;;;;;-0.33;96.42;96975.39;109075;1272;24970;-82
2023/04/03 05:35:13;;;;;;;2.90;2.60;;;;;;;-0.37;96.60;96977.23;109095;1275;22805;-82
2023/04/03 05:37:42;;;;;;;4.00;2.30;;;;;;;-0.38;96.93;96975.39;109112;1275;45580;-82
2023/04/03 05:40:13;;;;;;;2.60;2.20;;;;;;;-0.38;96.76;96977.20;109117;1275;22555;-82
2023/04/03 05:42:42;;;;;;;4.10;2.80;;;;;;;-0.39;96.42;96985.98;109107;1275;22533;-82
2023/04/03 05:45:11;;;;;;;2.70;2.40;;;;;;;-0.35;96.90;96984.56;109076;1275;22465;-82
2023/04/03 05:47:39;;;;;;;2.80;2.10;;;;;;;-0.35;96.37;96985.48;109068;1275;45076;-82
2023/04/03 05:50:09;;;;;;;3.00;2.10;;;;;;;-0.39;96.45;96985.98;109135;1269;22559;-82
2023/04/03 05:52:41;;;;;;;2.80;2.50;;;;;;;-0.39;96.40;96985.13;109134;1275;24261;-82
2023/04/03 05:55:11;;;;;;;2.40;2.20;;;;;;;-0.39;96.38;96989.77;109105;1271;22482;-82
2023/04/03 05:57:39;;;;;;;3.60;2.50;;;;;;;-0.39;96.33;96994.03;109028;1275;62119;-82
2023/04/03 06:00:14;;;;;;;4.20;2.90;;;;;;;-0.39;96.59;96998.20;109058;1275;23553;-82
2023/04/03 06:02:42;;;;;;;2.80;2.30;;;;;;;-0.44;96.68;96997.61;109093;1275;22592;-82
2023/04/03 06:05:12;;;;;;;3.40;2.50;;;;;;;-0.46;97.18;97001.58;109100;1275;22498;-82
2023/04/03 06:07:43;;;;;;;3.90;2.50;;;;;;;-0.45;97.13;97003.70;109053;1275;55095;-81
2023/04/03 06:10:11;;;;;;;;;;;;;;;-0.48;97.08;97000.89;109015;1275;22523;-82
2023/04/03 06:12:40;;;;;;;3.20;2.40;;;;;;;-0.48;97.00;97006.47;109048;1272;22500;-82
2023/04/03 06:15:10;;;;;;;5.30;2.80;;;;;;;-0.45;97.07;97009.19;109063;1275;22525;-82
2023/04/03 06:17:38;;;;;;;3.10;2.40;;;;;;;-0.46;96.39;97009.99;109028;1273;55664;-81
2023/04/03 06:20:09;;;;;;;2.40;1.60;;;;;;;-0.49;96.38;97011.75;109115;1275;22514;-81
2023/04/03 06:22:38;;;;;;;3.20;2.40;;;;;;;-0.46;96.63;97013.11;109120;1275;22553;-82
2023/04/03 06:25:10;;;;;;;2.80;2.20;;;;;;;-0.40;96.40;97012.55;109084;1269;24151;-83
2023/04/03 06:27:39;;;;;;;3.90;2.50;;;;;;;-0.43;96.23;97015.20;109045;1275;43943;-82
2023/04/03 06:30:10;;;;;;;3.10;2.70;;;;;;;-0.42;96.09;97015.94;109052;1275;23035;-82
2023/04/03 06:32:40;;;;;;;4.00;2.70;;;;;;;-0.41;95.83;97018.59;109095;1275;24158;-82
2023/04/03 06:35:09;;;;;;;3.10;2.30;;;;;;;-0.40;95.81;97025.36;109111;1275;25220;-82
2023/04/03 06:37:38;;;;;;;3.70;2.60;;;;;;;-0.38;95.59;97020.59;109001;1275;56243;-82
2023/04/03 06:40:10;;;;;;;3.90;2.60;;;;;;;-0.37;96.16;97026.24;109069;1275;22723;-83
2023/04/03 06:42:39;;;;;;;4.00;2.50;;;;;;;-0.30;96.74;97029.13;109104;1253;22643;-82
2023/04/03 06:45:11;;;;;;;4.80;3.00;;;;;;;-0.28;96.39;97030.48;109087;1269;23280;-83
2023/04/03 06:47:39;;;;;;;2.80;2.40;;;;;;;-0.26;96.57;97033.00;109051;1275;47023;-83
2023/04/03 06:50:11;;;;;;;3.30;2.40;;;;;;;-0.25;96.40;97028.79;109085;1275;22730;-83
2023/04/03 06:52:39;;;;;;;3.00;2.20;;;;;;;-0.15;96.76;97034.11;109123;1275;22553;-83
2023/04/03 06:55:09;;;;;;;4.20;2.60;;;;;;;-0.08;96.55;97032.48;109143;1275;22536;-83
2023/04/03 06:57:38;;;;;;;3.70;2.50;;;;;;;-0.02;96.60;97036.31;109072;1272;53685;-83
2023/04/03 07:00:09;;;;;;;3.40;2.60;;;;;;;0.04;96.21;97039.09;109065;1275;24362;-82
2023/04/03 07:02:37;;;;;;;3.10;2.60;;;;;;;0.13;96.34;97040.02;109074;1275;23138;-82
2023/04/03 07:05:09;;;;;;;2.70;1.80;;;;;;;0.20;96.13;97044.30;109117;1275;22504;-81
2023/04/03 07:07:38;;;;;;;3.50;2.40;;;;;;;0.25;95.65;97043.89;109073;1273;43473;-81
2023/04/03 07:10:09;;;;;;;4.00;2.40;;;;;;;0.16;94.40;97044.59;109105;1275;22721;-81
2023/04/03 07:12:37;;;;;;;2.70;2.10;;;;;;;0.03;93.72;97053.49;109098;1275;22478;-82
2023/04/03 07:15:08;;;;;;;4.60;2.70;;;;;;;0.06;94.02;97056.98;109092;1275;22482;-82
2023/04/03 07:17:37;;;;;;;3.30;2.20;;;;;;;0.13;94.05;97055.09;108994;1269;58097;-81
2023/04/03 07:20:08;;;;;;;3.30;2.20;;;;;;;0.22;94.31;97064.15;109042;1269;22584;-81
2023/04/03 07:22:37;;;;;;;4.30;2.40;;;;;;;0.25;93.90;97063.78;109054;1275;22576;-82
2023/04/03 07:25:07;;;;;;;5.40;2.20;;;;;;;0.24;93.56;97065.75;109046;1275;25258;-82
2023/04/03 07:27:36;;;;;;;4.00;2.30;;;;;;;0.24;93.06;97076.42;109023;1275;62674;-82
2023/04/03 07:30:07;;;;;;;3.90;1.80;;;;;;;0.28;93.35;97073.98;109098;1275;22135;-81
2023/04/03 07:32:35;;;;;;;2.60;2.10;;;;;;;0.33;93.21;97080.88;109038;1272;25962;-81
2023/04/03 07:35:04;;;;;;;3.20;2.30;;;;;;;0.40;93.21;97084.52;109044;1275;23234;-81
2023/04/03 07:37:33;;;;;;;2.80;2.60;;;;;;;0.55;93.66;97087.08;109048;1256;66452;-81
2023/04/03 07:40:03;;;;;;;4.80;2.50;;;;;;;0.63;93.08;97082.97;109102;1275;23293;-81
2023/04/03 07:42:31;;;;;;;2.40;2.20;;;;;;;0.66;92.83;97089.50;109075;1275;22484;-81
2023/04/03 07:45:00;;;;;;;3.40;2.40;;;;;;;0.75;92.46;97092.95;109076;1275;22568;-81
2023/04/03 07:47:28;;;;;;;3.80;2.50;;;;;;;0.81;92.23;97094.57;109010;1275;53337;-81
2023/04/03 07:49:57;;;;;;;4.20;2.30;;;;;;;0.95;92.29;97096.59;109049;1275;22527;-81
2023/04/03 07:52:25;;;;;;;3.20;2.50;;;;;;;1.10;91.70;97096.02;109095;1275;22550;-81
2023/04/03 07:54:54;;;;;;;4.40;2.40;;;;;;;1.15;91.42;97099.02;109097;1275;22520;-81
2023/04/03 07:57:22;;;;;;;4.50;2.80;;;;;;;1.15;90.85;97096.23;109019;1275;44084;-81
2023/04/03 07:59:51;;;;;;;5.80;2.90;;;;;;;1.08;90.52;97099.27;109054;1275;22537;-80
2023/04/03 08:02:19;;;;;;;4.50;2.60;;;;;;;1.10;90.38;97103.73;109078;1275;22472;-81
2023/04/03 08:04:48;;;;;;;5.40;2.80;;;;;;;1.09;90.00;97101.08;109098;1275;22504;-80
2023/04/03 08:07:16;;;;;;;4.70;2.40;;;;;;;1.04;89.33;97102.52;108961;1274;66284;-80
2023/04/03 08:09:44;;;;;;;4.40;2.50;;;;;;;1.11;89.57;97099.20;109095;1275;22517;-80
2023/04/03 08:12:14;;;;;;;3.10;2.10;;;;;;;1.15;89.04;97098.75;109050;1269;24286;-80
2023/04/03 08:14:42;;;;;;;5.40;2.40;;;;;;;1.16;89.18;97104.81;109038;1276;22552;-80
2023/04/03 08:17:11;;;;;;;5.00;2.70;;;;;;;1.26;89.21;97104.56;109035;1266;58786;-80
2023/04/03 08:19:40;;;;;;;5.50;2.70;;;;;;;1.23;88.64;97103.41;109090;1275;22523;-80
2023/04/03 08:22:09;;;;;;;4.80;2.80;;;;;;;1.08;87.63;97109.04;109118;1272;22472;-80
2023/04/03 08:24:37;;;;;;;5.70;3.20;;;;;;;0.99;87.45;97115.14;109101;1272;22482;-80
2023/04/03 08:27:05;;;;;;;6.50;2.80;;;;;;;0.97;87.42;97110.76;109014;1275;60187;-80
2023/04/03 08:29:34;;;;;;;5.90;3.00;;;;;;;0.94;87.34;97110.92;109118;1275;22685;-80
2023/04/03 08:32:02;;;;;;;4.10;2.00;;;;;;;1.01;87.69;97112.32;109097;1275;22536;-80
2023/04/03 08:34:34;;;;;;;4.30;2.40;;;;;;;1.09;87.70;97111.85;109129;1275;25025;-80
2023/04/03 08:37:03;;;;;;;6.10;2.80;;;;;;;1.20;87.72;97112.82;109062;1275;34520;-80
2023/04/03 08:39:31;;;;;;;5.80;3.10;;;;;;;1.34;88.26;97112.01;109117;1275;22604;-80
2023/04/03 08:42:03;;;;;;;5.80;4.00;;;;;;;1.45;88.18;97116.11;109124;1270;25413;-80
2023/04/03 08:44:42;;;;;;;6.00;3.30;;;;;;;1.52;88.03;97116.55;109163;1275;22598;-80
2023/04/03 08:47:24;;;;;;;5.70;2.60;;;;;;;1.61;88.14;97124.71;109094;1275;47447;-81
2023/04/03 08:49:54;;;;;;;5.20;3.00;;;;;;;1.54;87.83;97132.83;109189;1275;22518;-80
2023/04/03 08:52:32;;;;;;;5.30;3.40;;;;;;;1.41;87.42;97130.08;109106;1275;22521;-80
2023/04/03 08:55:03;;;;;;;4.70;2.60;;;;;;;1.30;87.11;97132.77;109063;1275;22583;-80
2023/04/03 08:57:36;;;;;;;4.10;2.30;;;;;;;1.23;87.06;97134.86;109088;1275;43803;-80
2023/04/03 09:00:16;;;;;;;3.80;2.20;;;;;;;1.14;86.74;97136.73;109088;1269;22618;-80
2023/04/03 09:02:47;;;;;;;4.40;2.30;;;;;;;1.12;86.90;97135.58;109120;1275;22711;-80
2023/04/03 09:05:18;;;;;;;4.50;2.50;;;;;;;1.24;87.26;97136.48;109106;1275;22489;-81
2023/04/03 09:07:51;;;;;;;3.50;2.10;;;;;;;1.38;87.39;97136.91;109057;1275;54746;-81
2023/04/03 09:10:27;;;;;;;5.60;2.70;;;;;;;1.43;86.84;97137.27;109096;1275;25229;-81
2023/04/03 09:13:06;;;;;;;4.80;2.40;;;;;;;1.53;86.93;97142.52;109049;1275;22906;-81
2023/04/03 09:15:35;;;;;;;5.30;2.50;;;;;;;1.71;86.85;97144.05;109072;1272;53423;-81
2023/04/03 09:18:12;;;;;;;4.90;2.50;;;;;;;1.81;86.62;97147.16;109058;1275;22465;-81
2023/04/03 09:20:46;;;;;;;5.20;2.90;;;;;;;1.88;86.52;97143.84;109128;1275;25316;-80
2023/04/03 09:23:28;;;;;;;3.70;2.60;;;;;;;1.96;86.28;97145.55;109097;1274;22902;-81
2023/04/03 09:26:03;;;;;;;5.20;2.80;;;;;;;2.02;85.92;97153.54;109078;1275;39984;-81
2023/04/03 09:28:34;;;;;;;5.00;2.90;;;;;;;2.10;85.90;97153.16;109098;1275;23722;-80
2023/04/03 09:31:15;;;;;;;5.80;2.60;;;;;;;2.09;85.67;97159.02;109125;1270;22523;-82
2023/04/03 09:33:44;;;;;;;3.60;2.60;;;;;;;2.07;85.49;97155.83;109058;1275;22543;-81
2023/04/03 09:36:12;;;;;;;3.30;2.40;;;;;;;2.05;85.12;97157.21;109113;1275;33804;-80
2023/04/03 09:38:41;;;;;;;6.20;2.80;;;;;;;2.01;84.85;97160.91;109102;1275;22578;-81
2023/04/03 09:41:15;;;;;;;;;;;;;;;2.12;85.53;97165.22;109148;1275;22521;-81
2023/04/03 09:43:54;;;;;;;4.30;2.20;;;;;;;2.35;85.72;97168.58;109116;1275;22553;-81
2023/04/03 09:46:34;;;;;;;4.10;2.90;;;;;;;2.51;85.45;97169.45;109060;1275;35421;-80
2023/04/03 09:49:04;;;;;;;5.30;2.90;;;;;;;2.40;84.53;97171.57;109125;1275;22546;-82
2023/04/03 09:51:33;;;;;;;5.20;2.90;;;;;;;2.17;84.19;97179.48;109139;1275;23655;-81
2023/04/03 09:54:24;;;;;;;4.20;2.80;;;;;;;2.11;84.62;97174.80;109163;1275;23266;-82
2023/04/03 09:57:01;;;;;;;5.40;3.00;;;;;;;2.09;84.28;97176.34;109080;1272;56655;-81
2023/04/03 09:59:31;;;;;;;3.10;2.20;;;;;;;2.00;84.18;97181.70;109125;1275;23708;-82
2023/04/03 10:02:02;;;;;;;4.30;2.70;;;;;;;1.92;83.87;97184.23;109090;1275;22587;-81
2023/04/03 10:04:40;;;;;;;3.50;2.20;;;;;;;1.98;84.33;97188.15;109129;1275;24770;-81
2023/04/03 10:07:30;;;;;;;4.70;2.40;;;;;;;2.12;84.47;97184.14;109054;1275;47420;-83
2023/04/03 10:09:58;;;;;;;;;;;;;;;2.15;84.13;97188.42;109110;1267;22551;-81
2023/04/03 10:12:26;;;;;;;3.90;2.10;;;;;;;2.20;84.17;97192.66;109053;1275;22521;-81
2023/04/03 10:15:00;;;;;;;3.40;2.30;;;;;;;2.23;84.23;97197.47;109100;1275;22537;-80
2023/04/03 10:17:51;;;;;;;4.30;2.90;;;;;;;2.27;84.13;97202.44;109029;1275;59941;-82
2023/04/03 10:20:33;;;;;;;4.70;2.60;;;;;;;2.12;83.89;97203.44;109132;1275;22580;-81
2023/04/03 10:23:19;;;;;;;4.20;2.50;;;;;;;2.02;83.99;97203.21;108995;1276;22595;-81
2023/04/03 10:26:04;;;;;;;5.00;2.60;;;;;;;1.97;83.92;97204.33;109020;1275;53199;-82
2023/04/03 10:28:40;;;;;;;4.40;2.30;;;;;;;1.98;84.00;97205.58;109120;1275;22553;-80
2023/04/03 10:31:15;;;;;;;2.80;1.80;;;;;;;2.04;83.72;97207.92;108940;1275;207934;-82
2023/04/03 10:34:01;;;;;;;2.80;1.90;;;;;;;2.06;83.57;97211.36;109131;1275;22569;-82
2023/04/03 10:36:38;;;;;;;4.10;1.80;;;;;;;2.06;82.94;97206.53;109006;1275;63084;-82
2023/04/03 10:39:24;;;;;;;2.70;1.70;;;;;;;2.10;83.08;97210.30;109100;1255;22553;-81
2023/04/03 10:42:03;;;;;;;3.50;1.60;;;;;;;2.24;83.20;97213.31;109193;1275;22524;-81
2023/04/03 10:44:43;;;;;;;2.90;2.30;;;;;;;2.36;83.32;97214.77;109106;1275;23437;-82
2023/04/03 10:47:20;;;;;;;3.30;2.30;;;;;;;2.28;82.66;97208.59;108993;1275;40118;-81
2023/04/03 10:50:00;;;;;;;3.00;2.20;;;;;;;2.09;83.00;97208.31;109066;1275;25141;-81
2023/04/03 10:52:37;;;;;;;4.60;1.90;;;;;;;2.07;83.31;97210.75;109094;1275;22553;-82
2023/04/03 10:55:24;;;;;;;2.40;1.80;;;;;;;1.96;82.55;97209.68;109108;1275;22479;-81
2023/04/03 10:57:57;;;;;;;2.40;1.80;;;;;;;1.93;82.39;97212.66;109050;1275;47813;-81
2023/04/03 11:00:34;;;;;;;4.30;2.80;;;;;;;1.98;82.56;97212.89;109092;1254;23680;-81
2023/04/03 11:03:06;;;;;;;3.70;2.50;;;;;;;2.06;82.86;97219.45;109060;1275;22603;-81
2023/04/03 11:05:41;;;;;;;3.70;2.20;;;;;;;2.05;82.16;97219.37;109084;1269;55636;-81
2023/04/03 11:08:19;;;;;;;4.10;2.20;;;;;;;1.89;82.00;97217.96;109079;1273;22569;-81
2023/04/03 11:10:51;;;;;;;2.90;1.90;;;;;;;1.92;82.31;97222.41;109141;1275;24214;-81
2023/04/03 11:13:23;;;;;;;5.60;2.80;;;;;;;2.01;82.45;97221.21;109121;1275;22528;-81
2023/04/03 11:15:54;;;;;;;3.40;2.10;;;;;;;2.07;82.47;97220.04;109111;1275;56580;-81
2023/04/03 11:18:28;;;;;;;4.20;2.10;;;;;;;2.14;82.15;97225.54;109140;1275;22477;-80
2023/04/03 11:21:04;;;;;;;5.60;3.10;;;;;;;2.22;82.19;97229.06;109099;1275;22553;-81
2023/04/03 11:23:35;;;;;;;4.20;2.70;;;;;;;2.28;82.10;97225.54;109091;1275;22490;-80
2023/04/03 11:26:11;;;;;;;3.30;2.40;;;;;;;2.13;81.69;97225.81;109096;1273;44167;-80
2023/04/03 11:28:41;;;;;;;3.10;2.20;;;;;;;2.15;81.78;97226.50;109151;1275;22527;-81
2023/04/03 11:31:15;;;;;;;;;;;;;;;2.22;81.88;97226.41;109123;1275;22526;-81
2023/04/03 11:33:51;;;;;;;5.60;2.80;;;;;;;2.32;82.09;97225.67;109123;1275;22663;-81
2023/04/03 11:36:25;;;;;;;5.70;3.70;;;;;;;2.43;82.82;97226.65;109091;1275;68843;-81
2023/04/03 11:38:57;;;;;;;5.80;3.20;;;;;;;2.46;82.68;97227.23;109150;1275;22597;-80
2023/04/03 11:41:30;;;;;;;4.40;3.00;;;;;;;2.39;82.81;97226.27;109131;1270;22554;-80
2023/04/03 11:44:02;;;;;;;4.90;3.30;;;;;;;2.08;82.25;97222.70;109134;1273;22539;-80
2023/04/03 11:46:55;;;;;;;5.70;3.40;;;;;;;1.85;82.48;97224.34;109084;1273;42260;-80
2023/04/03 11:50:00;;;;;;;4.90;3.40;;;;;;;1.78;82.63;97223.48;109123;1264;24152;-80